Time;durP1;ratioP1;P1;durP2;ratioP2;P2;SDS_P1;SDS_P2;PMS_P1;PMS_P2;Temp;Humidity;BMP_temperature;BMP_pressure;BME280_temperature;BME280_humidity;BME280_pressure;Samples;Min_cycle;Max_cycle;Signal;HPM_P1;HPM_P2
2022/05/30 00:00:03;;;;;;;2.95;2.00;;;17.60;60.30;;;;;;5024871;28;20472;-75
2022/05/30 00:02:29;;;;;;;2.50;2.00;;;17.70;60.50;;;;;;5022732;28;20021;-76
2022/05/30 00:04:55;;;;;;;1.85;1.75;;;17.60;60.70;;;;;;5025405;28;20030;-76
2022/05/30 00:07:20;;;;;;;1.95;1.83;;;17.60;60.90;;;;;;5023780;28;20104;-74
2022/05/30 00:09:48;;;;;;;2.03;1.83;;;17.60;61.00;;;;;;5023781;28;20477;-78
2022/05/30 00:12:13;;;;;;;2.15;2.00;;;17.60;61.10;;;;;;5025002;28;20025;-78
2022/05/30 00:14:39;;;;;;;2.20;2.00;;;17.50;61.20;;;;;;5023395;28;20018;-78
2022/05/30 00:17:05;;;;;;;2.15;1.98;;;17.60;61.40;;;;;;5023717;28;20033;-78
2022/05/30 00:19:31;;;;;;;1.92;1.83;;;17.60;61.50;;;;;;5024976;28;20709;-79
2022/05/30 00:21:57;;;;;;;1.90;1.80;;;17.60;61.50;;;;;;5018189;28;20018;-79
2022/05/30 00:24:23;;;;;;;2.17;1.98;;;17.60;61.60;;;;;;5023543;28;20021;-78
2022/05/30 00:26:48;;;;;;;2.67;2.10;;;17.60;61.60;;;;;;5023398;28;20018;-79
2022/05/30 00:29:14;;;;;;;2.30;1.90;;;17.60;61.70;;;;;;5023365;28;20051;-79
2022/05/30 00:31:40;;;;;;;2.30;1.92;;;17.60;61.80;;;;;;5022892;28;20026;-79
2022/05/30 00:34:06;;;;;;;2.20;2.00;;;17.60;61.80;;;;;;5023524;28;20104;-78
2022/05/30 00:36:32;;;;;;;2.35;2.15;;;17.50;61.80;;;;;;5024962;28;20033;-78
2022/05/30 00:38:57;;;;;;;2.20;2.00;;;17.50;62.00;;;;;;5029363;28;20030;-78
2022/05/30 00:41:23;;;;;;;2.17;2.00;;;17.50;62.10;;;;;;5024318;28;20017;-78
2022/05/30 00:43:49;;;;;;;3.40;2.30;;;17.50;62.30;;;;;;5024269;28;20073;-79
2022/05/30 00:46:18;;;;;;;2.22;2.03;;;17.40;62.30;;;;;;5021168;28;20029;-80
2022/05/30 00:49:03;;;;;;;2.20;2.00;;;17.40;62.30;;;;;;5023536;28;20065;-80
2022/05/30 00:51:31;;;;;;;;;;;17.40;63.20;;;;;;5016911;28;20022;-80
2022/05/30 00:53:59;;;;;;;2.10;1.90;;;17.30;65.10;;;;;;5018042;28;20367;-80
2022/05/30 00:56:29;;;;;;;2.40;2.00;;;17.40;62.50;;;;;;5023541;28;20022;-80
2022/05/30 00:58:55;;;;;;;2.13;2.00;;;17.40;62.70;;;;;;5022178;28;20361;-80
2022/05/30 01:01:21;;;;;;;2.00;1.90;;;17.40;62.70;;;;;;5023483;28;20108;-80
2022/05/30 01:06:43;;;;;;;2.03;1.80;;;17.40;63.30;;;;;;5022860;28;20100;-80
2022/05/30 01:09:12;;;;;;;1.95;1.80;;;17.40;63.30;;;;;;5022423;28;20064;-80
2022/05/30 01:11:51;;;;;;;2.05;1.85;;;17.30;63.30;;;;;;5017044;28;20101;-78
2022/05/30 01:14:18;;;;;;;2.92;1.92;;;17.30;63.70;;;;;;5013128;28;20363;-81
2022/05/30 01:16:44;;;;;;;1.75;1.65;;;17.40;63.40;;;;;;5023218;28;20101;-80
2022/05/30 01:19:36;;;;;;;2.05;1.90;;;17.40;63.50;;;;;;5022291;28;20045;-81
2022/05/30 01:22:20;;;;;;;1.80;1.70;;;17.30;63.70;;;;;;5021317;28;20037;-80
2022/05/30 01:25:08;;;;;;;2.00;1.90;;;17.40;63.90;;;;;;5019764;28;20026;-79
2022/05/30 01:27:52;;;;;;;1.77;1.67;;;17.40;64.80;;;;;;5019730;28;20033;-81
2022/05/30 01:30:18;;;;;;;2.38;1.95;;;17.40;63.70;;;;;;5022571;28;20490;-78
2022/05/30 01:32:44;;;;;;;2.28;2.08;;;17.40;63.70;;;;;;5022563;28;20033;-78
2022/05/30 01:35:11;;;;;;;2.10;1.88;;;17.40;63.80;;;;;;5020591;28;20038;-81
2022/05/30 01:37:37;;;;;;;3.10;2.20;;;17.40;64.00;;;;;;5019727;28;20108;-81
2022/05/30 01:40:03;;;;;;;2.13;1.98;;;17.40;64.00;;;;;;5017016;28;20029;-78
2022/05/30 01:42:29;;;;;;;4.45;2.20;;;17.40;64.20;;;;;;5021880;28;20128;-80
2022/05/30 01:44:55;;;;;;;2.00;1.80;;;17.40;64.30;;;;;;5022625;28;20108;-78
2022/05/30 01:47:21;;;;;;;2.63;2.20;;;17.40;64.50;;;;;;5021928;28;20037;-77
2022/05/30 01:49:46;;;;;;;2.17;1.98;;;17.30;64.50;;;;;;5020941;28;20029;-78
2022/05/30 01:52:12;;;;;;;2.30;2.10;;;17.30;64.70;;;;;;5020775;28;20128;-78
2022/05/30 01:54:38;;;;;;;2.05;1.85;;;17.20;65.20;;;;;;5016046;28;20145;-78
2022/05/30 01:57:04;;;;;;;1.70;1.60;;;17.20;65.10;;;;;;5022572;28;20388;-81
2022/05/30 01:59:29;;;;;;;2.10;1.90;;;17.20;65.10;;;;;;5023021;28;20096;-81
2022/05/30 02:01:55;;;;;;;2.65;2.00;;;17.20;65.20;;;;;;5021204;28;20484;-80
2022/05/30 02:04:21;;;;;;;2.08;1.88;;;17.20;65.40;;;;;;5022767;28;20446;-81
2022/05/30 02:06:46;;;;;;;3.05;2.05;;;17.20;65.40;;;;;;5028269;28;20018;-81
2022/05/30 02:09:12;;;;;;;2.00;1.90;;;17.20;65.50;;;;;;5020164;28;20606;-80
2022/05/30 02:11:38;;;;;;;2.13;1.98;;;17.20;65.60;;;;;;5030322;28;20038;-81
2022/05/30 02:14:04;;;;;;;3.60;2.10;;;17.20;65.70;;;;;;5022094;28;20559;-81
2022/05/30 02:19:18;;;;;;;2.80;2.60;;;17.10;65.90;;;;;;5015593;28;20029;-81
2022/05/30 02:21:43;;;;;;;3.63;3.10;;;17.20;66.10;;;;;;5022447;28;20049;-81
2022/05/30 02:24:09;;;;;;;3.38;2.92;;;17.10;66.20;;;;;;5022765;28;20112;-81
2022/05/30 02:26:36;;;;;;;3.88;2.90;;;17.10;66.10;;;;;;5021040;28;20033;-79
2022/05/30 02:29:04;;;;;;;4.00;2.80;;;17.10;66.20;;;;;;5022582;28;20053;-81
2022/05/30 02:31:30;;;;;;;2.92;2.63;;;17.10;66.30;;;;;;5022729;28;20022;-82
2022/05/30 02:36:41;;;;;;;3.13;2.67;;;17.20;66.40;;;;;;5023116;28;20033;-82
2022/05/30 02:39:17;;;;;;;2.92;2.50;;;17.10;66.40;;;;;;5022246;28;20381;-81
2022/05/30 02:41:46;;;;;;;2.60;2.40;;;17.20;66.70;;;;;;5021536;28;20076;-82
2022/05/30 02:44:13;;;;;;;2.40;2.17;;;17.20;66.50;;;;;;5023333;28;20025;-77
2022/05/30 02:46:39;;;;;;;2.30;2.10;;;17.20;66.60;;;;;;5021767;28;20107;-82
2022/05/30 02:49:05;;;;;;;2.28;2.08;;;17.30;66.60;;;;;;5021976;28;20062;-82
2022/05/30 02:51:31;;;;;;;2.40;2.20;;;17.30;66.60;;;;;;5021259;28;20025;-81
2022/05/30 02:53:57;;;;;;;2.35;2.15;;;17.20;66.70;;;;;;5022775;28;20414;-81
2022/05/30 02:56:23;;;;;;;2.20;2.00;;;17.20;66.80;;;;;;5022892;28;20391;-80
2022/05/30 02:58:49;;;;;;;2.30;2.10;;;17.20;66.90;;;;;;5025361;28;20025;-81
2022/05/30 03:01:15;;;;;;;2.40;2.20;;;17.20;66.90;;;;;;5026472;28;20029;-80
2022/05/30 03:03:41;;;;;;;2.92;2.20;;;17.20;67.00;;;;;;5024830;28;20022;-82
2022/05/30 03:06:07;;;;;;;3.10;2.38;;;17.30;67.10;;;;;;5025249;28;20026;-82
2022/05/30 03:08:33;;;;;;;2.92;2.63;;;17.30;67.10;;;;;;5026655;28;20116;-81
2022/05/30 03:10:59;;;;;;;3.08;2.65;;;17.30;67.10;;;;;;5024387;28;20101;-81
2022/05/30 03:13:25;;;;;;;3.53;2.63;;;17.30;67.20;;;;;;5025407;28;20040;-80
2022/05/30 03:15:51;;;;;;;3.22;2.50;;;17.30;67.10;;;;;;5026357;28;20055;-81
2022/05/30 03:18:17;;;;;;;2.97;2.70;;;17.30;67.20;;;;;;5024989;28;20391;-86
2022/05/30 03:20:43;;;;;;;2.80;2.50;;;17.40;67.40;;;;;;5037069;28;20120;-80
2022/05/30 03:23:09;;;;;;;3.10;2.38;;;17.40;67.30;;;;;;5036562;28;20025;-81
2022/05/30 03:25:35;;;;;;;2.25;2.03;;;17.50;67.40;;;;;;5036387;28;20040;-86
2022/05/30 03:28:01;;;;;;;2.70;2.42;;;17.60;67.50;;;;;;5036318;28;20042;-85
2022/05/30 03:30:27;;;;;;;2.65;2.38;;;17.70;67.50;;;;;;5035119;28;20038;-85
2022/05/30 03:32:53;;;;;;;2.55;2.20;;;17.90;67.40;;;;;;5036783;28;20061;-86
2022/05/30 03:35:20;;;;;;;2.35;2.15;;;18.00;67.20;;;;;;5035625;28;20458;-85
2022/05/30 03:37:46;;;;;;;2.40;2.20;;;18.20;67.00;;;;;;5034863;28;20385;-85
2022/05/30 03:40:14;;;;;;;3.75;2.30;;;18.30;66.80;;;;;;5034859;28;20029;-80
2022/05/30 03:42:39;;;;;;;2.05;1.90;;;18.50;66.60;;;;;;5035919;28;20079;-79
2022/05/30 03:45:07;;;;;;;2.45;1.92;;;18.60;66.40;;;;;;5035868;28;20112;-78
2022/05/30 03:47:42;;;;;;;3.95;2.38;;;18.70;66.10;;;;;;5036003;28;20044;-78
2022/05/30 03:50:10;;;;;;;2.40;2.05;;;18.80;66.00;;;;;;5028706;28;20030;-77
2022/05/30 03:52:36;;;;;;;2.42;2.20;;;18.90;65.70;;;;;;5024263;28;20030;-83
2022/05/30 03:55:04;;;;;;;2.50;2.05;;;19.00;65.60;;;;;;5028582;28;20045;-80
2022/05/30 03:57:30;;;;;;;3.22;2.30;;;19.10;65.40;;;;;;5023904;28;20030;-82
2022/05/30 03:59:55;;;;;;;3.65;2.08;;;19.10;65.10;;;;;;5025024;28;20482;-85
2022/05/30 04:02:21;;;;;;;2.35;2.10;;;19.10;64.80;;;;;;5033987;28;20033;-84
2022/05/30 04:04:47;;;;;;;2.60;2.40;;;19.10;64.60;;;;;;5032879;28;20028;-81
2022/05/30 04:07:12;;;;;;;1.95;1.83;;;19.10;64.60;;;;;;5022688;28;20059;-79
2022/05/30 04:09:38;;;;;;;2.50;2.30;;;19.10;64.60;;;;;;5031403;28;20026;-76
2022/05/30 04:12:04;;;;;;;2.50;2.10;;;19.10;64.60;;;;;;5024034;28;20033;-76
2022/05/30 04:14:31;;;;;;;3.25;2.30;;;19.10;64.60;;;;;;5018019;28;20505;-79
2022/05/30 04:16:57;;;;;;;2.50;2.30;;;19.10;64.50;;;;;;5018042;28;20026;-79
2022/05/30 04:19:22;;;;;;;2.80;2.30;;;19.10;64.50;;;;;;5015609;28;20052;-83
2022/05/30 04:21:48;;;;;;;4.43;2.50;;;19.10;64.50;;;;;;5015278;28;20030;-82
2022/05/30 04:24:14;;;;;;;2.92;2.28;;;19.10;64.40;;;;;;5015945;28;20022;-80
2022/05/30 04:26:40;;;;;;;2.03;1.83;;;19.10;64.30;;;;;;5015748;28;20018;-84
2022/05/30 04:29:07;;;;;;;2.50;2.28;;;19.10;64.40;;;;;;5015228;28;20381;-84
2022/05/30 04:31:33;;;;;;;2.60;2.22;;;19.10;64.50;;;;;;5014177;28;20018;-81
2022/05/30 04:34:00;;;;;;;2.83;2.28;;;19.10;64.30;;;;;;5015357;28;20100;-85
2022/05/30 04:36:26;;;;;;;2.40;2.20;;;19.10;64.40;;;;;;5015083;28;20065;-85
2022/05/30 04:38:52;;;;;;;1.90;1.80;;;19.20;64.40;;;;;;5014909;28;20065;-82
2022/05/30 04:41:17;;;;;;;2.40;2.20;;;19.20;64.30;;;;;;5015476;28;20029;-84
2022/05/30 04:43:43;;;;;;;2.78;2.17;;;19.20;64.20;;;;;;5015065;28;20029;-84
2022/05/30 04:46:17;;;;;;;2.45;2.10;;;19.20;64.10;;;;;;5015727;28;20412;-83
2022/05/30 04:48:44;;;;;;;2.20;2.00;;;19.30;64.10;;;;;;5013857;28;20076;-82
2022/05/30 04:51:10;;;;;;;2.42;2.15;;;19.30;64.00;;;;;;5015150;28;20038;-84
2022/05/30 04:53:36;;;;;;;2.38;2.08;;;19.30;64.00;;;;;;5013645;28;20096;-78
2022/05/30 04:56:03;;;;;;;2.17;2.00;;;19.30;63.90;;;;;;5016461;28;20240;-83
2022/05/30 04:58:29;;;;;;;2.63;2.10;;;19.30;63.80;;;;;;5029483;28;20071;-80
2022/05/30 05:00:59;;;;;;;3.95;2.50;;;19.30;63.80;;;;;;5034546;28;20025;-83
2022/05/30 05:03:24;;;;;;;2.30;2.10;;;19.30;63.90;;;;;;5032760;28;20030;-78
2022/05/30 05:05:50;;;;;;;2.40;1.98;;;19.30;64.00;;;;;;5034598;28;20083;-78
2022/05/30 05:08:19;;;;;;;3.30;2.08;;;19.30;64.00;;;;;;5033135;28;20412;-77
2022/05/30 05:10:57;;;;;;;3.50;2.28;;;19.40;64.00;;;;;;5033312;28;20060;-78
2022/05/30 05:13:22;;;;;;;2.85;2.30;;;19.40;64.10;;;;;;5034462;28;20025;-78
2022/05/30 05:15:48;;;;;;;2.85;2.20;;;19.40;63.90;;;;;;5032712;28;20021;-79
2022/05/30 05:18:14;;;;;;;3.13;2.38;;;19.50;63.80;;;;;;5033709;28;20030;-78
2022/05/30 05:20:44;;;;;;;3.58;2.50;;;19.60;63.70;;;;;;5034704;28;20298;-83
2022/05/30 05:23:11;;;;;;;2.40;2.15;;;19.50;63.60;;;;;;5033866;28;20025;-78
2022/05/30 05:25:41;;;;;;;2.63;2.30;;;19.60;63.50;;;;;;5034946;28;20060;-80
2022/05/30 05:28:07;;;;;;;3.20;2.35;;;19.60;63.50;;;;;;5034641;28;20053;-84
2022/05/30 05:30:34;;;;;;;3.10;2.55;;;19.60;63.40;;;;;;5034150;28;20159;-82
2022/05/30 05:33:00;;;;;;;5.32;2.58;;;19.60;63.40;;;;;;5032770;28;20049;-82
2022/05/30 05:35:25;;;;;;;2.60;2.40;;;19.60;63.50;;;;;;5034117;28;20460;-83
2022/05/30 05:37:51;;;;;;;3.10;2.38;;;19.60;63.40;;;;;;5033724;28;20037;-81
2022/05/30 05:40:17;;;;;;;3.05;2.45;;;19.70;63.40;;;;;;5033674;28;20132;-86
2022/05/30 05:42:43;;;;;;;4.35;2.40;;;19.70;63.20;;;;;;5032287;28;20125;-82
2022/05/30 05:45:10;;;;;;;4.10;2.40;;;19.70;63.10;;;;;;5034084;28;20053;-82
2022/05/30 05:47:36;;;;;;;2.97;2.53;;;19.70;63.10;;;;;;5033647;28;20034;-79
2022/05/30 05:50:02;;;;;;;3.70;2.58;;;19.70;63.10;;;;;;5033099;28;20028;-77
2022/05/30 05:52:32;;;;;;;2.65;2.30;;;19.80;63.10;;;;;;5033307;28;20034;-78
2022/05/30 05:54:59;;;;;;;2.42;2.22;;;19.80;63.10;;;;;;5033697;28;20471;-78
2022/05/30 05:57:27;;;;;;;3.33;2.60;;;19.80;63.10;;;;;;5032221;28;20033;-77
2022/05/30 05:59:53;;;;;;;3.67;2.85;;;19.90;63.10;;;;;;5034154;28;20025;-78
2022/05/30 06:02:20;;;;;;;4.28;2.58;;;19.90;63.10;;;;;;5026960;28;20026;-76
2022/05/30 06:04:46;;;;;;;3.33;2.67;;;20.00;63.10;;;;;;5033315;28;20108;-77
2022/05/30 06:07:12;;;;;;;3.33;2.70;;;20.00;63.10;;;;;;5032453;28;20128;-84
2022/05/30 06:09:38;;;;;;;4.00;2.75;;;20.00;63.10;;;;;;5032081;28;20029;-81
2022/05/30 06:12:04;;;;;;;4.43;2.60;;;20.10;63.10;;;;;;5032193;28;20030;-82
2022/05/30 06:14:30;;;;;;;3.05;2.40;;;20.10;63.10;;;;;;5024814;28;20026;-83
2022/05/30 06:16:56;;;;;;;3.60;2.67;;;20.20;63.20;;;;;;5021829;28;20022;-80
2022/05/30 06:19:22;;;;;;;8.65;2.92;;;20.30;63.20;;;;;;5022983;28;20227;-79
2022/05/30 06:21:48;;;;;;;4.07;2.65;;;20.30;63.70;;;;;;5020465;28;20052;-79
2022/05/30 06:24:15;;;;;;;4.10;3.05;;;20.40;63.10;;;;;;5021709;28;20463;-76
2022/05/30 06:26:44;;;;;;;4.10;3.42;;;20.50;63.10;;;;;;5018937;28;20072;-83
2022/05/30 06:29:12;;;;;;;3.85;2.85;;;20.60;62.90;;;;;;5020928;28;20037;-79
2022/05/30 06:31:38;;;;;;;3.08;2.78;;;20.70;62.80;;;;;;5026555;28;20022;-81
2022/05/30 06:34:04;;;;;;;3.03;2.67;;;20.70;62.60;;;;;;5031579;28;20033;-76
2022/05/30 06:36:31;;;;;;;5.78;3.22;;;20.80;62.50;;;;;;5032350;28;20439;-75
2022/05/30 06:38:57;;;;;;;4.38;2.88;;;20.80;62.50;;;;;;5023097;28;20492;-84
2022/05/30 06:41:29;;;;;;;3.72;3.10;;;20.80;62.40;;;;;;5022579;28;20112;-77
2022/05/30 06:44:06;;;;;;;4.90;3.05;;;20.90;62.50;;;;;;5036119;28;20032;-78
2022/05/30 06:46:34;;;;;;;6.82;3.50;;;20.90;62.40;;;;;;5033770;28;20056;-76
2022/05/30 06:49:01;;;;;;;5.15;3.70;;;21.00;62.30;;;;;;5017286;28;20045;-77
2022/05/30 06:51:29;;;;;;;5.15;3.67;;;21.10;62.30;;;;;;5015478;28;20053;-77
2022/05/30 06:53:55;;;;;;;6.13;3.75;;;21.20;62.30;;;;;;5015318;28;20598;-77
2022/05/30 06:56:30;;;;;;;4.43;3.30;;;21.20;62.20;;;;;;5015836;28;20034;-74
2022/05/30 06:58:56;;;;;;;3.90;2.88;;;21.30;62.20;;;;;;5016820;28;20038;-69
2022/05/30 07:01:27;;;;;;;3.90;3.40;;;21.40;62.10;;;;;;5016777;28;20037;-78
2022/05/30 07:03:54;;;;;;;4.20;3.20;;;21.40;62.00;;;;;;5015443;28;20056;-78
2022/05/30 07:06:22;;;;;;;4.05;3.30;;;21.40;61.80;;;;;;5016297;28;20030;-75
2022/05/30 07:08:48;;;;;;;3.97;2.97;;;21.40;61.80;;;;;;5000143;28;20116;-74
2022/05/30 07:11:16;;;;;;;2.90;2.60;;;21.50;61.70;;;;;;5016775;28;20129;-78
2022/05/30 07:13:42;;;;;;;5.20;3.28;;;21.50;61.60;;;;;;5015803;28;20026;-80
2022/05/30 07:16:09;;;;;;;4.40;3.55;;;21.50;61.60;;;;;;5016663;28;20026;-71
2022/05/30 07:18:36;;;;;;;4.38;3.60;;;21.50;61.50;;;;;;5016548;28;20060;-77
2022/05/30 07:21:05;;;;;;;4.28;3.03;;;21.50;61.40;;;;;;5015088;28;20534;-73
2022/05/30 07:23:33;;;;;;;3.63;3.10;;;21.60;61.40;;;;;;5015077;28;20030;-74
2022/05/30 07:26:00;;;;;;;4.15;3.50;;;21.60;61.40;;;;;;5016464;28;20109;-75
2022/05/30 07:28:30;;;;;;;5.30;3.65;;;21.60;61.30;;;;;;5015151;28;20050;-77
2022/05/30 07:31:04;;;;;;;5.65;4.10;;;21.60;61.30;;;;;;4998969;28;20381;-76
2022/05/30 07:33:31;;;;;;;4.53;3.72;;;21.50;61.20;;;;;;5014924;28;20033;-76
2022/05/30 07:35:57;;;;;;;4.60;3.65;;;21.50;61.80;;;;;;5016186;28;20022;-78
2022/05/30 07:38:22;;;;;;;4.63;3.65;;;21.50;61.20;;;;;;5016403;28;20045;-73
2022/05/30 07:40:48;;;;;;;4.53;3.95;;;21.50;61.30;;;;;;5015877;28;20108;-80
2022/05/30 07:43:14;;;;;;;7.28;4.22;;;21.40;61.30;;;;;;5015111;28;20033;-78
2022/05/30 07:45:40;;;;;;;5.22;3.97;;;21.40;61.30;;;;;;5015043;28;20453;-75
2022/05/30 07:48:07;;;;;;;5.43;3.60;;;21.40;61.30;;;;;;5016296;28;20038;-77
2022/05/30 07:50:36;;;;;;;6.30;4.00;;;21.40;61.30;;;;;;5015603;28;20030;-78
2022/05/30 07:53:04;;;;;;;5.90;3.30;;;21.40;61.30;;;;;;5015627;28;20407;-78
2022/05/30 07:55:29;;;;;;;5.28;3.30;;;21.40;61.40;;;;;;5015170;28;20029;-78
2022/05/30 07:58:04;;;;;;;6.80;3.80;;;21.50;61.40;;;;;;5016005;28;20354;-77
2022/05/30 08:00:32;;;;;;;5.80;3.97;;;21.50;61.40;;;;;;5015958;28;20022;-78
2022/05/30 08:02:58;;;;;;;4.35;3.47;;;21.60;61.40;;;;;;5015895;28;20032;-77
2022/05/30 08:05:24;;;;;;;4.57;3.38;;;21.60;61.20;;;;;;5016130;28;20055;-78
2022/05/30 08:07:52;;;;;;;3.92;3.35;;;21.60;61.20;;;;;;5015868;28;20030;-78
2022/05/30 08:10:20;;;;;;;5.15;3.88;;;21.60;61.10;;;;;;5015703;28;20100;-78
2022/05/30 08:12:47;;;;;;;5.28;3.92;;;21.60;61.20;;;;;;5014399;28;20030;-74
2022/05/30 08:15:14;;;;;;;5.00;3.65;;;21.60;61.20;;;;;;5015228;28;20033;-78
2022/05/30 08:17:40;;;;;;;5.13;3.92;;;21.60;61.30;;;;;;5015820;28;20488;-74
2022/05/30 08:20:10;;;;;;;5.30;3.92;;;21.50;61.30;;;;;;5015495;28;20456;-77
2022/05/30 08:22:37;;;;;;;6.85;3.88;;;21.60;61.30;;;;;;5014426;28;20131;-77
2022/05/30 08:25:10;;;;;;;5.05;3.58;;;21.60;61.30;;;;;;5014114;28;20029;-77
2022/05/30 08:27:36;;;;;;;6.72;4.25;;;21.60;61.30;;;;;;5015095;28;20030;-77
2022/05/30 08:30:03;;;;;;;5.22;4.30;;;21.60;61.20;;;;;;5015265;28;20531;-77
2022/05/30 08:32:37;;;;;;;5.57;3.95;;;21.60;61.30;;;;;;5014090;28;20056;-77
2022/05/30 08:35:05;;;;;;;6.35;4.25;;;21.60;61.40;;;;;;5014431;28;20029;-78
2022/05/30 08:37:35;;;;;;;5.57;4.22;;;21.60;61.30;;;;;;5013843;28;20484;-77
2022/05/30 08:42:47;;;;;;;5.80;3.70;;;21.70;61.30;;;;;;5014535;28;20084;-76
2022/05/30 08:45:18;;;;;;;4.72;3.58;;;21.70;61.30;;;;;;5014783;28;20034;-76
2022/05/30 08:47:54;;;;;;;7.25;4.45;;;21.70;61.40;;;;;;5013477;28;20030;-77
2022/05/30 08:50:26;;;;;;;5.05;3.90;;;21.70;61.40;;;;;;5013541;28;20547;-77
2022/05/30 08:53:09;;;;;;;5.80;4.32;;;21.60;61.40;;;;;;5014437;28;20092;-77
2022/05/30 08:55:47;;;;;;;6.82;3.92;;;21.60;61.40;;;;;;5014602;28;20164;-77
2022/05/30 08:58:45;;;;;;;7.00;4.13;;;21.50;61.70;;;;;;5013200;28;20038;-78
2022/05/30 09:01:33;;;;;;;6.07;3.60;;;21.40;61.90;;;;;;5014066;28;20033;-77
2022/05/30 09:04:39;;;;;;;4.40;3.75;;;21.30;62.00;;;;;;5014772;28;20022;-76
2022/05/30 09:07:13;;;;;;;4.75;3.70;;;21.30;62.40;;;;;;5022917;28;20038;-76
2022/05/30 09:09:55;;;;;;;;;;;21.30;62.10;;;;;;5015183;28;20018;-77
2022/05/30 09:12:24;;;;;;;5.28;3.53;;;21.30;63.10;;;;;;5014712;28;19906;-76
2022/05/30 09:14:58;;;;;;;5.32;4.00;;;21.40;62.20;;;;;;5014474;28;20026;-77
2022/05/30 09:17:56;;;;;;;4.68;3.90;;;21.40;62.30;;;;;;5012927;28;20040;-77
2022/05/30 09:20:23;;;;;;;4.80;3.75;;;21.50;62.30;;;;;;5014668;28;20125;-78
2022/05/30 09:22:50;;;;;;;5.72;3.90;;;21.50;62.10;;;;;;5013045;28;20030;-77
2022/05/30 09:26:07;;;;;;;4.60;3.47;;;21.50;62.10;;;;;;5012999;28;20141;-77
2022/05/30 09:28:40;;;;;;;5.15;3.78;;;21.60;62.20;;;;;;5014425;28;20054;-76
2022/05/30 09:31:21;;;;;;;5.03;3.88;;;21.60;62.10;;;;;;5013239;28;20022;-80
2022/05/30 09:33:51;;;;;;;7.57;4.20;;;21.70;62.30;;;;;;5014129;28;20026;-77
2022/05/30 09:36:24;;;;;;;6.75;3.85;;;21.80;62.10;;;;;;5013975;28;20407;-76
2022/05/30 09:38:59;;;;;;;4.93;3.28;;;21.80;62.10;;;;;;5013981;28;20395;-77
2022/05/30 09:41:39;;;;;;;4.25;3.40;;;21.70;62.10;;;;;;5014022;28;20022;-76
2022/05/30 09:44:17;;;;;;;5.20;3.75;;;21.80;62.20;;;;;;5014173;28;20030;-77
2022/05/30 09:46:54;;;;;;;6.68;3.70;;;21.80;62.20;;;;;;5012737;28;20511;-77
2022/05/30 09:49:26;;;;;;;5.22;3.55;;;21.80;62.20;;;;;;5013176;28;20121;-76
2022/05/30 09:52:00;;;;;;;6.70;4.13;;;21.80;62.20;;;;;;5012637;28;20026;-78
2022/05/30 09:54:26;;;;;;;7.25;5.32;;;21.90;62.30;;;;;;5014002;28;20026;-77
2022/05/30 09:56:59;;;;;;;6.85;4.72;;;21.90;62.30;;;;;;5013979;28;20205;-75
2022/05/30 09:59:30;;;;;;;6.20;4.47;;;21.90;62.40;;;;;;5013858;28;20387;-77
2022/05/30 10:01:56;;;;;;;8.02;4.93;;;21.90;62.30;;;;;;5014083;28;20048;-77
2022/05/30 10:04:41;;;;;;;5.85;4.90;;;21.80;62.30;;;;;;5013303;28;20030;-77
2022/05/30 10:07:16;;;;;;;6.38;4.70;;;21.80;62.60;;;;;;5013899;28;20026;-77
2022/05/30 10:09:58;;;;;;;7.80;4.38;;;21.90;63.10;;;;;;5012580;28;20065;-79
2022/05/30 10:12:51;;;;;;;6.95;4.50;;;21.80;62.90;;;;;;5014090;28;20088;-78
2022/05/30 10:15:25;;;;;;;6.57;4.75;;;21.80;63.50;;;;;;5012854;28;20042;-77
2022/05/30 10:17:52;;;;;;;4.63;3.83;;;21.80;63.20;;;;;;5013796;28;20122;-76
2022/05/30 10:20:43;;;;;;;5.75;3.92;;;21.80;63.30;;;;;;5012496;28;20033;-77
2022/05/30 10:29:54;;;;;;;4.50;3.78;;;22.00;63.70;;;;;;5013844;28;20084;-77
2022/05/30 10:32:30;;;;;;;4.93;3.53;;;22.10;64.20;;;;;;5013657;28;20029;-77
2022/05/30 10:35:17;;;;;;;6.05;3.70;;;22.20;63.90;;;;;;5013909;28;20426;-76
2022/05/30 10:37:58;;;;;;;5.75;4.07;;;22.30;64.00;;;;;;5013494;28;20169;-76
2022/05/30 10:40:29;;;;;;;6.25;3.90;;;22.50;63.90;;;;;;5013680;28;20026;-77
2022/05/30 10:43:23;;;;;;;6.70;4.05;;;22.60;63.80;;;;;;5013788;28;20101;-76
2022/05/30 10:46:04;;;;;;;4.82;3.92;;;22.70;64.10;;;;;;5012479;28;20116;-76
2022/05/30 10:48:38;;;;;;;6.25;4.38;;;22.70;63.70;;;;;;5013569;28;20388;-77
2022/05/30 10:51:06;;;;;;;5.30;3.72;;;22.70;63.50;;;;;;5013486;28;20026;-74
2022/05/30 10:53:40;;;;;;;6.63;4.35;;;22.70;63.60;;;;;;5013874;28;20030;-83
2022/05/30 10:56:17;;;;;;;10.50;7.50;;;22.70;63.80;;;;;;5013632;28;20030;-76
2022/05/30 10:59:05;;;;;;;7.88;6.68;;;22.70;63.90;;;;;;5012893;28;20030;-77
2022/05/30 11:01:50;;;;;;;7.90;6.20;;;22.70;63.90;;;;;;5013138;28;20464;-74
2022/05/30 11:04:32;;;;;;;7.00;5.68;;;22.70;63.90;;;;;;5013184;28;20030;-72
2022/05/30 11:07:06;;;;;;;7.93;6.22;;;22.70;63.80;;;;;;5011882;28;20033;-77
2022/05/30 11:09:45;;;;;;;7.90;5.60;;;22.70;63.80;;;;;;5012101;28;20026;-78
2022/05/30 11:12:26;;;;;;;6.45;5.00;;;22.60;63.90;;;;;;4995124;28;20030;-77
2022/05/30 11:15:26;;;;;;;6.97;5.25;;;22.60;64.10;;;;;;5011865;28;20569;-77
2022/05/30 11:17:59;;;;;;;7.07;4.65;;;22.60;64.40;;;;;;5016489;28;20041;-77
2022/05/30 11:20:34;;;;;;;6.72;4.57;;;22.60;64.20;;;;;;5016669;28;20029;-77
2022/05/30 11:23:00;;;;;;;5.63;4.40;;;22.70;64.30;;;;;;5017432;28;20148;-78
2022/05/30 11:26:03;;;;;;;5.72;4.50;;;22.80;64.30;;;;;;5016575;28;20069;-76
2022/05/30 11:28:57;;;;;;;8.93;5.07;;;22.90;64.70;;;;;;5015177;28;20133;-78
2022/05/30 11:31:27;;;;;;;9.13;6.45;;;23.10;64.70;;;;;;5016915;28;20468;-75
2022/05/30 11:34:08;;;;;;;7.28;5.43;;;23.10;64.00;;;;;;5016499;28;20034;-76
2022/05/30 11:36:40;;;;;;;9.68;5.30;;;23.10;64.20;;;;;;5015002;28;20030;-75
2022/05/30 11:39:11;;;;;;;6.40;5.07;;;23.20;64.10;;;;;;5016191;28;20038;-75
2022/05/30 11:42:04;;;;;;;6.32;4.47;;;23.10;64.00;;;;;;5016341;28;20088;-76
2022/05/30 11:44:41;;;;;;;5.78;4.60;;;23.20;64.30;;;;;;5016379;28;20022;-76
2022/05/30 11:47:31;;;;;;;7.65;4.20;;;23.20;64.20;;;;;;5014872;28;20551;-76
2022/05/30 11:50:33;;;;;;;6.60;4.68;;;23.30;64.60;;;;;;5015887;28;20030;-76
2022/05/30 11:53:36;;;;;;;6.82;4.45;;;23.30;64.90;;;;;;5014979;28;20033;-79
2022/05/30 11:56:13;;;;;;;6.18;4.57;;;23.30;64.60;;;;;;5015899;28;20036;-77
2022/05/30 11:58:51;;;;;;;7.38;4.53;;;23.40;64.50;;;;;;5015882;28;20074;-75
2022/05/30 12:01:18;;;;;;;6.40;4.47;;;23.50;64.60;;;;;;5014699;28;20030;-77
2022/05/30 12:04:04;;;;;;;5.88;4.20;;;23.60;64.30;;;;;;5014859;28;20096;-76
2022/05/30 12:06:37;;;;;;;6.20;4.38;;;23.60;64.20;;;;;;5018329;28;20042;-78
2022/05/30 12:09:20;;;;;;;6.65;4.50;;;23.60;64.20;;;;;;5015814;28;20030;-77
2022/05/30 12:11:52;;;;;;;6.45;4.35;;;23.60;64.10;;;;;;5015653;28;20029;-77
2022/05/30 12:14:21;;;;;;;7.95;4.00;;;23.50;64.00;;;;;;5015605;28;20101;-77
2022/05/30 12:23:48;;;;;;;5.35;4.10;;;23.50;63.90;;;;;;5015257;28;20034;-78
2022/05/30 12:23:50;;;;;;;5.13;3.95;;;23.50;64.30;;;;;;5032375;28;20068;-77
2022/05/30 12:26:22;;;;;;;7.65;4.00;;;23.50;64.00;;;;;;5015421;28;20117;-77
2022/05/30 12:28:52;;;;;;;7.72;4.07;;;23.50;64.10;;;;;;5014331;28;20107;-77
2022/05/30 12:31:38;;;;;;;5.13;3.95;;;23.40;64.10;;;;;;5014988;28;20033;-73
2022/05/30 12:34:06;;;;;;;5.20;4.20;;;23.50;64.50;;;;;;5013717;28;20060;-77
2022/05/30 12:36:37;;;;;;;8.43;4.40;;;23.50;64.20;;;;;;5015019;28;20038;-78
2022/05/30 12:39:30;;;;;;;7.43;4.50;;;23.50;64.20;;;;;;5013651;28;20062;-77
2022/05/30 12:41:58;;;;;;;6.35;4.63;;;23.50;64.30;;;;;;5014626;28;20049;-77
2022/05/30 12:44:44;;;;;;;6.75;4.32;;;23.50;64.20;;;;;;5014913;28;20026;-78
2022/05/30 12:47:18;;;;;;;4.88;3.72;;;23.50;64.20;;;;;;5015046;28;20080;-78
2022/05/30 12:49:49;;;;;;;5.38;4.05;;;23.50;64.10;;;;;;5013515;28;20022;-77
2022/05/30 12:52:17;;;;;;;5.15;3.92;;;23.50;64.00;;;;;;5014822;28;20030;-77
2022/05/30 12:55:23;;;;;;;5.45;3.63;;;23.50;64.10;;;;;;5014941;28;20554;-77
2022/05/30 12:57:49;;;;;;;4.68;3.67;;;23.40;64.30;;;;;;5014222;28;20477;-78
2022/05/30 13:00:20;;;;;;;5.40;3.42;;;23.30;63.90;;;;;;5014765;28;20025;-78
2022/05/30 13:03:22;;;;;;;4.68;3.53;;;23.20;63.90;;;;;;5014420;28;20022;-76
2022/05/30 13:06:10;;;;;;;5.03;3.17;;;23.10;63.80;;;;;;5015517;28;20038;-77
2022/05/30 13:09:11;;;;;;;3.17;2.72;;;23.00;63.70;;;;;;5014682;28;20058;-76
2022/05/30 13:12:19;;;;;;;3.70;2.83;;;22.90;63.70;;;;;;5014947;28;20025;-73
2022/05/30 13:15:00;;;;;;;3.53;2.60;;;22.90;63.70;;;;;;5014592;28;20113;-77
2022/05/30 13:18:01;;;;;;;3.85;2.80;;;22.80;63.70;;;;;;5014386;28;20544;-78
2022/05/30 13:20:46;;;;;;;4.00;2.80;;;22.70;63.80;;;;;;5013536;28;20022;-77
2022/05/30 13:23:15;;;;;;;4.50;2.60;;;22.70;63.80;;;;;;5013323;28;20255;-76
2022/05/30 13:25:48;;;;;;;3.70;2.70;;;22.60;64.50;;;;;;5014503;28;20029;-76
2022/05/30 13:28:41;;;;;;;4.43;3.28;;;22.60;64.10;;;;;;5013099;28;20041;-77
2022/05/30 13:31:10;;;;;;;6.82;4.53;;;22.50;64.50;;;;;;5013184;28;20030;-75